Gulbeniz A — TCZK8 — position and weather

sailwx.info

Track history (hours):
 
Tides and Currents Weather Stations Pressure Air Temp Water Temp Dewpoint Dewpoint Depression Visibility Wind Speed Wind Dir Waves Ship Positions

Gulbeniz A

Last reported at 2016-Sep-25 17:33 UTC. Time now 2016-Sep-27 07:02 UTC.
Position N 37°60' E 015°34'.

Length 210 m; draft 10.5 m.

Type: Ship (hazmat cat A). MMSI: 271042493.

Date/timePositionNaut miles runAvg speedWind from/ knotsBaromVisibWave heightAir tempDewpointWater temp
2016-Sep-25 17:33N 37°60' E 015°34'1514.6
2016-Sep-25 16:33N 38°14' E 015°36'9 8.8
2016-Sep-25 15:33N 38°23' E 015°35'1615.8
2016-Sep-25 14:33N 38°34' E 015°21'3115.6
2016-Sep-25 12:32N 38°53' E 014°49'51115.4
2016-Sep-24 03:20N 43°09' E 005°02'1114.2
2016-Sep-24 02:33N 43°19' E 004°58'8 8.2
2016-Sep-24 01:33N 43°25' E 004°50'0 0.0
2016-Sep-24 00:33N 43°25' E 004°50'0 0.0
2016-Sep-23 19:32N 43°25' E 004°50'0 0.0
2016-Sep-23 17:33N 43°25' E 004°50'0 0.0
2016-Sep-23 16:33N 43°25' E 004°50'2 1.5
2016-Sep-23 15:33N 43°24' E 004°52'17 8.5
2016-Sep-23 13:34N 43°08' E 004°58'15915.4
2016-Sep-23 03:14N 41°18' E 002°22'9 8.4
2016-Sep-23 02:08N 41°21' E 002°10'9 0.4
2016-Sep-22 04:29N 41°12' E 002°08'1213.1
2016-Sep-22 03:33N 41°03' E 001°57'4314.3
2016-Sep-22 00:33N 40°32' E 001°19'1514.5
2016-Sep-21 23:33N 40°24' E 001°03'1514.9
2016-Sep-21 22:33N 40°16' E 000°47'71 2.4
2016-Sep-20 17:30N 39°26' W 000°19'0 0.0
2016-Sep-20 14:33N 39°26' W 000°19'0 0.0
2016-Sep-20 13:33N 39°26' W 000°19'0 0.0
2016-Sep-20 10:33N 39°26' W 000°19'0 0.0
2016-Sep-20 08:33N 39°26' W 000°19'0 0.0
2016-Sep-20 07:33N 39°26' W 000°19'0 0.0
2016-Sep-20 06:33N 39°26' W 000°19'0 0.0
2016-Sep-20 02:33N 39°26' W 000°19'0 0.0
2016-Sep-19 23:33N 39°26' W 000°19'1 0.2
2016-Sep-19 14:31N 39°27' W 000°19'0 0.0
2016-Sep-19 13:31N 39°27' W 000°19'0 0.0
2016-Sep-19 12:31N 39°27' W 000°19'0 0.0
2016-Sep-19 11:31N 39°27' W 000°19'0 0.0
2016-Sep-19 09:25N 39°27' W 000°19'0 0.0
2016-Sep-19 07:31N 39°27' W 000°19'0 0.0
2016-Sep-19 06:31N 39°27' W 000°19'0 0.0
2016-Sep-19 03:22N 39°27' W 000°19'0 0.0
2016-Sep-19 02:31N 39°27' W 000°19'0 0.0
2016-Sep-19 00:31N 39°27' W 000°19'0 0.0
2016-Sep-18 19:33N 39°27' W 000°19'88 9.7
2016-Sep-18 10:30N 39°16' E 001°33'910.1
2016-Sep-18 09:34N 39°14' E 001°45'30815.0
2016-Sep-17 13:03N 38°50' E 008°21'3614.4
2016-Sep-17 10:33N 38°57' E 009°06'1413.7
2016-Sep-17 09:33N 39°11' E 009°06'2 2.1
2016-Sep-17 08:32N 39°13' E 009°04'0 0.0
2016-Sep-17 07:32N 39°13' E 009°04'0 0.0
2016-Sep-17 05:32N 39°13' E 009°04'0 0.0
2016-Sep-17 04:32N 39°13' E 009°04'0 0.0
2016-Sep-17 00:32N 39°13' E 009°04'150 9.9
2016-Sep-16 09:21N 37°48' E 011°42'2715.0
2016-Sep-16 07:33N 37°33' E 012°11'6115.2
2016-Sep-16 03:33N 37°05' E 013°19'1515.3
2016-Sep-16 02:33N 36°59' E 013°36'3014.8
2016-Sep-16 00:33N 36°47' E 014°10'3015.0
2016-Sep-15 22:33N 36°37' E 014°45'1514.7
2016-Sep-15 21:33N 36°34' E 015°04'  
Track history (hours):
 
Tides and Currents Weather Stations Pressure Air Temp Water Temp Dewpoint Dewpoint Depression Visibility Wind Speed Wind Dir Waves Ship Positions

Gulbeniz A

Last reported at 2016-Sep-25 17:33 UTC. Time now 2016-Sep-27 07:02 UTC.
Position N 37°60' E 015°34'.

Length 210 m; draft 10.5 m.

Type: Ship (hazmat cat A). MMSI: 271042493.

Date/timePositionNaut miles runAvg speedWind from/ knotsBaromVisibWave heightAir tempDewpointWater temp
2016-Sep-25 17:33N 37°60' E 015°34'1514.6
2016-Sep-25 16:33N 38°14' E 015°36'9 8.8
2016-Sep-25 15:33N 38°23' E 015°35'1615.8
2016-Sep-25 14:33N 38°34' E 015°21'3115.6
2016-Sep-25 12:32N 38°53' E 014°49'51115.4
2016-Sep-24 03:20N 43°09' E 005°02'1114.2
2016-Sep-24 02:33N 43°19' E 004°58'8 8.2
2016-Sep-24 01:33N 43°25' E 004°50'0 0.0
2016-Sep-24 00:33N 43°25' E 004°50'0 0.0
2016-Sep-23 19:32N 43°25' E 004°50'0 0.0
2016-Sep-23 17:33N 43°25' E 004°50'0 0.0
2016-Sep-23 16:33N 43°25' E 004°50'2 1.5
2016-Sep-23 15:33N 43°24' E 004°52'17 8.5
2016-Sep-23 13:34N 43°08' E 004°58'15915.4
2016-Sep-23 03:14N 41°18' E 002°22'9 8.4
2016-Sep-23 02:08N 41°21' E 002°10'9 0.4
2016-Sep-22 04:29N 41°12' E 002°08'1213.1
2016-Sep-22 03:33N 41°03' E 001°57'4314.3
2016-Sep-22 00:33N 40°32' E 001°19'1514.5
2016-Sep-21 23:33N 40°24' E 001°03'1514.9
2016-Sep-21 22:33N 40°16' E 000°47'71 2.4
2016-Sep-20 17:30N 39°26' W 000°19'0 0.0
2016-Sep-20 14:33N 39°26' W 000°19'0 0.0
2016-Sep-20 13:33N 39°26' W 000°19'0 0.0
2016-Sep-20 10:33N 39°26' W 000°19'0 0.0
2016-Sep-20 08:33N 39°26' W 000°19'0 0.0
2016-Sep-20 07:33N 39°26' W 000°19'0 0.0
2016-Sep-20 06:33N 39°26' W 000°19'0 0.0
2016-Sep-20 02:33N 39°26' W 000°19'0 0.0
2016-Sep-19 23:33N 39°26' W 000°19'1 0.2
2016-Sep-19 14:31N 39°27' W 000°19'0 0.0
2016-Sep-19 13:31N 39°27' W 000°19'0 0.0
2016-Sep-19 12:31N 39°27' W 000°19'0 0.0
2016-Sep-19 11:31N 39°27' W 000°19'0 0.0
2016-Sep-19 09:25N 39°27' W 000°19'0 0.0
2016-Sep-19 07:31N 39°27' W 000°19'0 0.0
2016-Sep-19 06:31N 39°27' W 000°19'0 0.0
2016-Sep-19 03:22N 39°27' W 000°19'0 0.0
2016-Sep-19 02:31N 39°27' W 000°19'0 0.0
2016-Sep-19 00:31N 39°27' W 000°19'0 0.0
2016-Sep-18 19:33N 39°27' W 000°19'88 9.7
2016-Sep-18 10:30N 39°16' E 001°33'910.1
2016-Sep-18 09:34N 39°14' E 001°45'30815.0
2016-Sep-17 13:03N 38°50' E 008°21'3614.4
2016-Sep-17 10:33N 38°57' E 009°06'1413.7
2016-Sep-17 09:33N 39°11' E 009°06'2 2.1
2016-Sep-17 08:32N 39°13' E 009°04'0 0.0
2016-Sep-17 07:32N 39°13' E 009°04'0 0.0
2016-Sep-17 05:32N 39°13' E 009°04'0 0.0
2016-Sep-17 04:32N 39°13' E 009°04'0 0.0
2016-Sep-17 00:32N 39°13' E 009°04'150 9.9
2016-Sep-16 09:21N 37°48' E 011°42'2715.0
2016-Sep-16 07:33N 37°33' E 012°11'6115.2
2016-Sep-16 03:33N 37°05' E 013°19'1515.3
2016-Sep-16 02:33N 36°59' E 013°36'3014.8
2016-Sep-16 00:33N 36°47' E 014°10'3015.0
2016-Sep-15 22:33N 36°37' E 014°45'1514.7
2016-Sep-15 21:33N 36°34' E 015°04'  

Dump ship's entire track history